Time;durP1;ratioP1;P1;durP2;ratioP2;P2;SDS_P1;SDS_P2;PMS_P1;PMS_P2;Temp;Humidity;BMP_temperature;BMP_pressure;BME280_temperature;BME280_humidity;BME280_pressure;Samples;Min_cycle;Max_cycle;Signal;HPM_P1;HPM_P2
2023/07/30 00:01:50;;;;;;;4.00;3.70;;;21.90;65.80;;;;;;20815;6815;116886;-70
2023/07/30 00:04:15;;;;;;;3.93;3.63;;;21.70;66.50;;;;;;20807;6815;117404;-68
2023/07/30 00:06:41;;;;;;;4.37;4.00;;;21.50;67.20;;;;;;20828;6815;118526;-70
2023/07/30 00:09:06;;;;;;;4.20;3.92;;;21.30;67.80;;;;;;20821;6815;123418;-70
2023/07/30 00:11:32;;;;;;;3.83;3.53;;;21.20;68.60;;;;;;20807;6815;117034;-69
2023/07/30 00:13:58;;;;;;;4.50;4.10;;;21.10;69.20;;;;;;20605;6814;305968;-70
2023/07/30 00:16:23;;;;;;;4.43;4.13;;;21.30;68.80;;;;;;20589;6815;307320;-70
2023/07/30 00:18:49;;;;;;;4.50;4.25;;;21.80;67.90;;;;;;20595;6815;307312;-68
2023/07/30 00:21:14;;;;;;;3.93;3.63;;;22.20;66.50;;;;;;20814;6815;118141;-70
2023/07/30 00:23:40;;;;;;;4.05;3.75;;;22.10;66.60;;;;;;20819;6815;117078;-70
2023/07/30 00:26:06;;;;;;;3.72;3.50;;;21.70;68.10;;;;;;20820;6815;117753;-69
2023/07/30 00:28:32;;;;;;;4.45;4.10;;;21.70;68.10;;;;;;20583;6815;305506;-70
2023/07/30 00:30:57;;;;;;;5.35;4.45;;;21.90;67.30;;;;;;20605;6815;305857;-70
2023/07/30 00:33:23;;;;;;;4.82;4.47;;;22.20;66.10;;;;;;20601;6815;306823;-69
2023/07/30 00:35:48;;;;;;;4.28;3.87;;;22.50;65.30;;;;;;20820;6815;117533;-70
2023/07/30 00:38:16;;;;;;;5.53;4.93;;;22.30;65.70;;;;;;20576;6815;311461;-69
2023/07/30 00:40:41;;;;;;;5.37;4.97;;;22.40;65.80;;;;;;20602;6815;278650;-70
2023/07/30 00:43:07;;;;;;;5.28;4.97;;;22.70;64.60;;;;;;20602;6815;276556;-68
2023/07/30 00:45:33;;;;;;;5.67;5.27;;;22.70;64.60;;;;;;20603;6815;280066;-68
2023/07/30 00:47:58;;;;;;;4.80;4.60;;;22.80;64.20;;;;;;20818;6815;117072;-70
2023/07/30 00:50:24;;;;;;;7.35;5.03;;;22.50;64.80;;;;;;20798;6815;118744;-70
2023/07/30 00:52:49;;;;;;;4.47;4.17;;;22.20;65.80;;;;;;20807;6815;117291;-69
2023/07/30 00:55:17;;;;;;;3.75;3.55;;;21.60;68.00;;;;;;20821;6815;117590;-68
2023/07/30 00:57:42;;;;;;;3.50;3.40;;;21.60;68.00;;;;;;20819;6815;119960;-69
2023/07/30 01:00:09;;;;;;;3.87;3.58;;;21.40;68.70;;;;;;20800;6815;117509;-73
2023/07/30 01:02:34;;;;;;;4.40;4.00;;;21.30;69.40;;;;;;20600;6815;291528;-70
2023/07/30 01:05:00;;;;;;;4.30;4.00;;;21.50;67.70;;;;;;20601;6815;291031;-70
2023/07/30 01:07:25;;;;;;;4.28;3.97;;;21.90;67.00;;;;;;20593;6815;306346;-69
2023/07/30 01:09:50;;;;;;;3.62;3.42;;;22.20;65.20;;;;;;20813;6815;118593;-70
2023/07/30 01:12:16;;;;;;;4.90;3.77;;;22.10;65.50;;;;;;20794;6815;118199;-70
2023/07/30 01:14:41;;;;;;;4.03;3.83;;;21.80;66.20;;;;;;20811;6815;119761;-69
2023/07/30 01:17:07;;;;;;;3.40;3.20;;;21.60;67.10;;;;;;20820;6815;117139;-69
2023/07/30 01:19:33;;;;;;;3.92;3.72;;;21.30;67.70;;;;;;20613;6815;277267;-70
2023/07/30 01:21:58;;;;;;;5.68;4.18;;;21.50;67.20;;;;;;20613;6815;311833;-68
2023/07/30 01:24:24;;;;;;;6.15;3.70;;;21.80;65.90;;;;;;20807;6813;117446;-70
2023/07/30 01:26:49;;;;;;;3.60;3.33;;;21.80;66.30;;;;;;20831;6815;118680;-68
2023/07/30 01:29:15;;;;;;;4.40;3.75;;;21.60;67.10;;;;;;20800;6815;117891;-68
2023/07/30 01:31:42;;;;;;;4.00;3.80;;;21.40;68.10;;;;;;20578;6815;310010;-70
2023/07/30 01:34:08;;;;;;;4.13;3.90;;;21.60;67.40;;;;;;20598;6815;276570;-72
2023/07/30 01:36:33;;;;;;;4.60;4.20;;;21.90;65.80;;;;;;20413;6815;336716;-69
2023/07/30 01:38:59;;;;;;;3.47;3.37;;;22.20;64.70;;;;;;20808;6815;118198;-70
2023/07/30 01:41:24;;;;;;;4.23;3.83;;;22.10;65.10;;;;;;20600;6815;276750;-70
2023/07/30 01:43:50;;;;;;;3.60;3.40;;;22.10;64.40;;;;;;20819;6815;119840;-68
2023/07/30 01:46:15;;;;;;;4.33;3.97;;;21.90;64.90;;;;;;20600;6815;279934;-70
2023/07/30 01:48:42;;;;;;;4.05;3.70;;;22.00;64.80;;;;;;20818;6815;117697;-69
2023/07/30 01:51:08;;;;;;;3.80;3.60;;;21.80;65.20;;;;;;20805;6815;118136;-70
2023/07/30 01:53:33;;;;;;;3.90;3.63;;;21.60;66.10;;;;;;20607;6815;298249;-68
2023/07/30 01:55:59;;;;;;;3.92;3.58;;;21.70;65.50;;;;;;20606;6815;279107;-68
2023/07/30 01:58:24;;;;;;;4.15;3.85;;;21.90;64.30;;;;;;20587;6815;335806;-71
2023/07/30 02:00:51;;;;;;;4.62;3.60;;;21.90;64.10;;;;;;20817;6815;118787;-70
2023/07/30 02:03:16;;;;;;;3.57;3.37;;;21.90;64.10;;;;;;20832;6815;67460;-69
2023/07/30 02:05:42;;;;;;;4.00;3.80;;;21.60;65.10;;;;;;20609;6815;335579;-69
2023/07/30 02:08:07;;;;;;;3.27;3.13;;;21.60;64.70;;;;;;20836;6815;117089;-68
2023/07/30 02:10:33;;;;;;;3.93;3.63;;;21.50;65.10;;;;;;20626;6815;278142;-70
2023/07/30 02:12:58;;;;;;;4.00;3.70;;;21.50;64.70;;;;;;20607;6815;278457;-70
2023/07/30 02:15:24;;;;;;;6.85;3.33;;;21.70;64.10;;;;;;20813;6815;118207;-70
2023/07/30 02:17:50;;;;;;;4.30;3.90;;;21.60;64.60;;;;;;20596;6815;306451;-69
2023/07/30 02:20:15;;;;;;;4.75;3.37;;;21.60;64.30;;;;;;20780;6815;117679;-71
2023/07/30 02:22:41;;;;;;;3.50;3.30;;;21.40;64.80;;;;;;20795;6815;122861;-75
2023/07/30 02:25:06;;;;;;;4.30;4.00;;;21.10;65.70;;;;;;20595;6815;294268;-72
2023/07/30 02:27:32;;;;;;;4.70;4.20;;;21.20;65.60;;;;;;20599;6815;278336;-71
2023/07/30 02:29:58;;;;;;;4.20;3.90;;;21.40;64.90;;;;;;20613;6815;282273;-74
2023/07/30 02:32:24;;;;;;;4.47;4.17;;;21.60;64.40;;;;;;20585;6815;306436;-75
2023/07/30 02:34:50;;;;;;;4.93;3.80;;;21.80;63.90;;;;;;20810;6815;117419;-75
2023/07/30 02:37:15;;;;;;;3.83;3.55;;;21.60;64.60;;;;;;20807;6813;117535;-73
2023/07/30 02:39:41;;;;;;;3.33;3.13;;;21.20;65.70;;;;;;20802;6815;118642;-73
2023/07/30 02:42:06;;;;;;;4.25;4.00;;;20.90;66.90;;;;;;20606;6815;277243;-74
2023/07/30 02:44:32;;;;;;;3.57;3.27;;;21.00;66.30;;;;;;20800;6815;116791;-74
2023/07/30 02:46:59;;;;;;;3.33;3.13;;;21.00;66.70;;;;;;20814;6815;117047;-71
2023/07/30 02:49:25;;;;;;;3.40;3.20;;;20.90;67.50;;;;;;20604;6815;301905;-73
2023/07/30 02:51:50;;;;;;;3.50;3.30;;;21.10;66.40;;;;;;20810;6815;118449;-71
2023/07/30 02:54:16;;;;;;;3.80;3.50;;;21.10;66.50;;;;;;20564;6815;309978;-72
2023/07/30 02:56:41;;;;;;;3.30;3.10;;;21.20;65.50;;;;;;20806;6815;118272;-71
2023/07/30 02:59:07;;;;;;;3.65;2.78;;;21.20;65.70;;;;;;20786;6815;117496;-71
2023/07/30 03:01:32;;;;;;;3.80;3.60;;;21.00;66.20;;;;;;20593;6815;282115;-73
2023/07/30 03:03:58;;;;;;;3.43;3.20;;;21.10;65.30;;;;;;20601;6815;336309;-72
2023/07/30 03:06:24;;;;;;;3.40;3.20;;;21.40;64.30;;;;;;20592;6815;290377;-71
2023/07/30 03:08:49;;;;;;;3.47;3.22;;;21.70;63.40;;;;;;20600;6815;336320;-72
2023/07/30 03:11:16;;;;;;;3.10;2.87;;;21.60;63.50;;;;;;20822;6815;118385;-72
2023/07/30 03:13:41;;;;;;;3.70;3.50;;;21.60;63.50;;;;;;20609;6815;287371;-72
2023/07/30 03:16:07;;;;;;;3.90;3.60;;;21.60;63.50;;;;;;20613;6815;277424;-72
2023/07/30 03:18:32;;;;;;;6.07;3.63;;;21.70;63.10;;;;;;20794;6815;117597;-71
2023/07/30 03:21:00;;;;;;;3.45;3.20;;;21.20;64.80;;;;;;20808;6815;118191;-71
2023/07/30 03:23:24;;;;;;;3.67;3.47;;;21.10;64.70;;;;;;20807;6815;116930;-72
2023/07/30 03:25:50;;;;;;;3.80;3.50;;;20.90;65.90;;;;;;20600;6815;339827;-73
2023/07/30 03:28:15;;;;;;;3.70;3.50;;;21.10;65.50;;;;;;20584;6815;306497;-72
2023/07/30 03:30:41;;;;;;;3.28;3.08;;;21.40;64.70;;;;;;20822;6815;116291;-71
2023/07/30 03:33:06;;;;;;;3.28;3.08;;;21.30;65.00;;;;;;20816;6815;118315;-72
2023/07/30 03:35:32;;;;;;;4.07;3.70;;;21.10;65.90;;;;;;20600;6815;309249;-71
2023/07/30 03:37:58;;;;;;;3.47;3.15;;;21.10;65.70;;;;;;20812;6815;117353;-71
2023/07/30 03:40:25;;;;;;;3.00;2.90;;;21.10;65.60;;;;;;20788;6815;118108;-72
2023/07/30 03:42:51;;;;;;;3.57;3.27;;;20.90;66.30;;;;;;20813;6815;117081;-71
2023/07/30 03:45:16;;;;;;;3.43;3.13;;;20.70;67.10;;;;;;20809;6815;117962;-72
2023/07/30 03:47:42;;;;;;;4.28;3.92;;;20.60;68.40;;;;;;20601;6814;309413;-74
2023/07/30 03:50:08;;;;;;;3.83;3.63;;;20.80;66.70;;;;;;20608;6815;306150;-72
2023/07/30 03:52:33;;;;;;;3.63;3.43;;;21.20;65.60;;;;;;20806;6815;121039;-72
2023/07/30 03:54:59;;;;;;;3.67;3.47;;;21.10;65.70;;;;;;20817;6815;116365;-72
2023/07/30 03:57:24;;;;;;;3.20;3.00;;;21.00;66.80;;;;;;20816;6815;118296;-72
2023/07/30 03:59:50;;;;;;;3.73;3.43;;;20.80;67.10;;;;;;20607;6815;277192;-71
2023/07/30 04:02:15;;;;;;;3.23;3.13;;;20.90;66.50;;;;;;20795;6815;118091;-72
2023/07/30 04:04:42;;;;;;;3.63;3.53;;;20.90;66.60;;;;;;20612;6815;276818;-72
2023/07/30 04:07:07;;;;;;;3.80;3.50;;;21.10;66.00;;;;;;20602;6815;336720;-70
2023/07/30 04:09:32;;;;;;;3.77;3.47;;;21.40;64.70;;;;;;20602;6815;305978;-72
2023/07/30 04:11:59;;;;;;;3.17;2.97;;;21.60;64.10;;;;;;20820;6815;116859;-73
2023/07/30 04:14:24;;;;;;;3.53;3.30;;;21.60;64.10;;;;;;20798;6815;118434;-72
2023/07/30 04:16:50;;;;;;;2.92;2.80;;;21.30;65.00;;;;;;20810;6815;117276;-72
2023/07/30 04:19:15;;;;;;;2.97;2.87;;;21.10;65.80;;;;;;20820;6815;117361;-71
2023/07/30 04:21:41;;;;;;;3.83;3.53;;;20.90;66.40;;;;;;20590;6815;311488;-72
2023/07/30 04:24:07;;;;;;;3.33;3.12;;;21.10;66.20;;;;;;20810;6815;118590;-72
2023/07/30 04:26:33;;;;;;;3.17;2.93;;;21.00;66.10;;;;;;20792;6815;121481;-72
2023/07/30 04:28:59;;;;;;;3.63;3.33;;;20.70;67.30;;;;;;20805;6815;115956;-71
2023/07/30 04:31:25;;;;;;;3.50;3.30;;;20.70;67.30;;;;;;20532;6815;306329;-71
2023/07/30 04:33:50;;;;;;;3.55;3.28;;;21.00;66.50;;;;;;20481;6815;312371;-71
2023/07/30 04:36:16;;;;;;;2.97;2.77;;;21.30;65.40;;;;;;20796;6815;119572;-71
2023/07/30 04:38:42;;;;;;;3.50;3.30;;;21.30;65.40;;;;;;20597;6815;335841;-71
2023/07/30 04:41:08;;;;;;;3.58;3.37;;;21.40;64.50;;;;;;20595;6815;306629;-72
2023/07/30 04:43:34;;;;;;;3.30;3.10;;;21.60;64.00;;;;;;20820;6815;119260;-71
2023/07/30 04:45:59;;;;;;;3.30;3.10;;;21.60;64.00;;;;;;20797;6815;66918;-72
2023/07/30 04:48:26;;;;;;;3.60;3.40;;;21.30;64.90;;;;;;20596;6815;320253;-74
2023/07/30 04:50:52;;;;;;;2.87;2.67;;;21.40;64.30;;;;;;20732;6815;68574;-72
2023/07/30 04:53:20;;;;;;;3.23;2.90;;;21.30;64.60;;;;;;20806;6812;119003;-72
2023/07/30 04:55:43;;;;;;;3.42;3.20;;;21.20;66.10;;;;;;20599;6812;277453;-71
2023/07/30 04:58:09;;;;;;;3.20;3.00;;;21.30;64.40;;;;;;20572;6812;335456;-74
2023/07/30 05:00:34;;;;;;;3.07;2.80;;;21.60;63.60;;;;;;20804;6811;117561;-72
2023/07/30 05:03:00;;;;;;;3.40;3.10;;;21.60;64.00;;;;;;20594;6812;276739;-72
2023/07/30 05:05:25;;;;;;;3.42;3.22;;;21.70;63.80;;;;;;20575;6812;335015;-72
2023/07/30 05:07:51;;;;;;;2.97;2.85;;;21.90;62.90;;;;;;20813;6812;120540;-72
2023/07/30 05:10:17;;;;;;;2.90;2.70;;;21.80;63.30;;;;;;20812;6812;119732;-72
2023/07/30 05:12:42;;;;;;;2.53;2.33;;;21.60;64.10;;;;;;20816;6812;117114;-72
2023/07/30 05:15:08;;;;;;;2.85;2.58;;;21.50;65.00;;;;;;20815;6812;119113;-70
2023/07/30 05:17:34;;;;;;;3.20;2.90;;;21.50;64.80;;;;;;20583;6812;306012;-72
2023/07/30 05:20:00;;;;;;;3.10;2.77;;;21.50;64.80;;;;;;20795;6812;119044;-70
2023/07/30 05:22:27;;;;;;;2.60;2.50;;;21.60;65.00;;;;;;20782;6812;122889;-72
2023/07/30 05:24:52;;;;;;;2.90;2.67;;;21.40;65.40;;;;;;20800;6812;123448;-73
2023/07/30 05:27:18;;;;;;;3.00;2.70;;;21.30;66.00;;;;;;20812;6812;117018;-72
2023/07/30 05:29:43;;;;;;;2.83;2.70;;;21.20;66.70;;;;;;20816;6812;119712;-72
2023/07/30 05:32:09;;;;;;;3.20;3.00;;;21.10;67.30;;;;;;20596;6812;276686;-72
2023/07/30 05:34:35;;;;;;;2.95;2.83;;;21.40;66.90;;;;;;20818;6812;121194;-70
2023/07/30 05:37:00;;;;;;;3.00;2.80;;;21.60;66.80;;;;;;20604;6812;306308;-73
2023/07/30 05:39:26;;;;;;;3.72;3.15;;;21.80;65.50;;;;;;20806;6812;117133;-73
2023/07/30 05:41:51;;;;;;;3.23;3.03;;;21.90;65.60;;;;;;20602;6812;276914;-73
2023/07/30 05:44:17;;;;;;;3.22;3.03;;;22.00;64.80;;;;;;20583;6812;335949;-75
2023/07/30 05:46:42;;;;;;;3.58;3.28;;;22.30;63.60;;;;;;20589;6812;303274;-73
2023/07/30 05:49:08;;;;;;;3.97;3.20;;;22.60;62.70;;;;;;20612;6812;306011;-73
2023/07/30 05:51:34;;;;;;;3.22;3.00;;;22.80;62.60;;;;;;20604;6812;334208;-72
2023/07/30 05:54:00;;;;;;;3.85;3.40;;;22.90;61.70;;;;;;20603;6812;307916;-73
2023/07/30 05:56:27;;;;;;;3.13;2.93;;;22.70;62.10;;;;;;20803;6812;121846;-73
2023/07/30 05:58:53;;;;;;;3.90;3.60;;;22.70;62.10;;;;;;20589;6812;310601;-73
2023/07/30 06:01:19;;;;;;;4.43;3.35;;;22.60;62.80;;;;;;20603;6812;306184;-72
2023/07/30 06:03:43;;;;;;;3.50;3.20;;;22.80;62.90;;;;;;20812;6812;118422;-72
2023/07/30 06:06:09;;;;;;;4.60;4.03;;;22.60;63.50;;;;;;20578;6812;277091;-76
2023/07/30 06:08:35;;;;;;;5.78;4.00;;;22.80;63.50;;;;;;20609;6812;309926;-74
2023/07/30 06:11:02;;;;;;;3.78;3.40;;;22.80;63.70;;;;;;20603;6810;305887;-73
2023/07/30 06:13:26;;;;;;;4.00;3.60;;;23.00;62.80;;;;;;20596;6812;310821;-77
2023/07/30 06:15:53;;;;;;;3.30;3.10;;;23.30;63.60;;;;;;20608;6812;336169;-74
2023/07/30 06:18:18;;;;;;;3.27;3.10;;;23.30;63.00;;;;;;20793;6812;119321;-74
2023/07/30 06:20:44;;;;;;;3.17;2.85;;;23.10;63.40;;;;;;20816;6812;117158;-74
2023/07/30 06:23:09;;;;;;;3.50;3.00;;;22.70;64.20;;;;;;20607;6812;306470;-74
2023/07/30 06:25:36;;;;;;;3.10;2.80;;;22.80;64.20;;;;;;20826;6812;117544;-73
2023/07/30 06:28:03;;;;;;;3.40;3.20;;;22.70;64.50;;;;;;20608;6812;282645;-73
2023/07/30 06:30:29;;;;;;;3.50;3.30;;;22.80;63.70;;;;;;20558;6812;357643;-74
2023/07/30 06:32:54;;;;;;;3.47;3.28;;;23.00;63.00;;;;;;20602;6812;309732;-74
2023/07/30 06:35:20;;;;;;;3.08;2.87;;;23.30;63.10;;;;;;20790;6812;117576;-74
2023/07/30 06:37:45;;;;;;;3.50;3.20;;;23.20;63.60;;;;;;20599;6812;310836;-73
2023/07/30 06:40:11;;;;;;;3.42;3.17;;;23.20;63.30;;;;;;20579;6812;335995;-74
2023/07/30 06:42:37;;;;;;;2.72;2.53;;;23.50;62.20;;;;;;20813;6812;118200;-74
2023/07/30 06:45:03;;;;;;;3.42;3.20;;;23.30;62.20;;;;;;20587;6812;306649;-73
2023/07/30 06:47:31;;;;;;;3.20;2.90;;;23.20;62.80;;;;;;20808;6812;119686;-73
2023/07/30 06:49:56;;;;;;;3.53;3.33;;;23.10;62.80;;;;;;20589;6812;306392;-73
2023/07/30 06:52:22;;;;;;;3.33;3.17;;;23.30;62.80;;;;;;20791;6812;122356;-74
2023/07/30 06:54:48;;;;;;;3.33;3.12;;;23.40;64.00;;;;;;20604;6812;306976;-74
2023/07/30 06:57:14;;;;;;;3.20;3.00;;;24.30;61.60;;;;;;20602;6812;324765;-74
2023/07/30 06:59:40;;;;;;;2.90;2.77;;;24.30;61.50;;;;;;20814;6812;121584;-75
2023/07/30 07:02:06;;;;;;;2.75;2.65;;;24.60;62.30;;;;;;20824;6812;119115;-73
2023/07/30 07:04:31;;;;;;;5.87;2.70;;;24.60;62.30;;;;;;20793;6812;117217;-73
2023/07/30 07:06:57;;;;;;;3.20;3.00;;;24.60;62.50;;;;;;20611;6812;305759;-73
2023/07/30 07:09:23;;;;;;;2.70;2.60;;;24.90;60.60;;;;;;20818;6812;117168;-73
2023/07/30 07:11:48;;;;;;;2.50;2.30;;;25.10;60.30;;;;;;20808;6812;117136;-73
2023/07/30 07:14:14;;;;;;;2.87;2.67;;;25.00;60.80;;;;;;20787;6812;117467;-73
2023/07/30 07:16:39;;;;;;;3.00;2.75;;;24.80;60.80;;;;;;20596;6812;282415;-72
2023/07/30 07:19:06;;;;;;;2.63;2.53;;;24.80;58.90;;;;;;20811;6812;123214;-72
2023/07/30 07:21:32;;;;;;;2.43;2.33;;;24.80;58.90;;;;;;20815;6812;116997;-72
2023/07/30 07:23:58;;;;;;;2.80;2.40;;;24.30;60.20;;;;;;20809;6811;120782;-72
2023/07/30 07:26:23;;;;;;;2.30;2.20;;;24.20;60.10;;;;;;20797;6812;117087;-74
2023/07/30 07:28:49;;;;;;;2.43;2.33;;;24.00;60.70;;;;;;20818;6812;117176;-73
2023/07/30 07:31:15;;;;;;;3.07;2.87;;;23.80;61.50;;;;;;20596;6812;277444;-74
2023/07/30 07:33:40;;;;;;;3.10;2.90;;;23.90;60.50;;;;;;20604;6812;339453;-74
2023/07/30 07:36:06;;;;;;;2.62;2.47;;;24.20;60.30;;;;;;20598;6812;304882;-74
2023/07/30 07:38:32;;;;;;;2.33;2.20;;;24.20;59.20;;;;;;20576;6812;281812;-74
2023/07/30 07:40:57;;;;;;;3.47;2.43;;;24.00;56.70;;;;;;20599;6812;339076;-73
2023/07/30 07:43:23;;;;;;;3.12;2.92;;;23.30;57.20;;;;;;20601;6812;277001;-73
2023/07/30 07:45:49;;;;;;;4.40;2.40;;;23.30;57.20;;;;;;20588;6812;281756;-74
2023/07/30 07:48:15;;;;;;;2.10;1.90;;;23.00;58.70;;;;;;20593;6812;306093;-74
2023/07/30 07:50:40;;;;;;;2.20;2.00;;;22.70;58.70;;;;;;20603;6812;312866;-73
2023/07/30 07:53:06;;;;;;;2.30;2.20;;;22.50;59.90;;;;;;20612;6812;298697;-73
2023/07/30 07:55:33;;;;;;;2.23;2.03;;;22.40;61.00;;;;;;20608;6812;324343;-73
2023/07/30 07:57:59;;;;;;;1.87;1.77;;;22.40;60.80;;;;;;20560;6812;310622;-72
2023/07/30 08:00:25;;;;;;;1.80;1.53;;;22.40;60.80;;;;;;20743;6812;119949;-73
2023/07/30 08:02:50;;;;;;;3.62;2.00;;;22.20;61.70;;;;;;20584;6812;335336;-73
2023/07/30 08:05:19;;;;;;;3.67;1.73;;;22.20;62.80;;;;;;20791;6812;120095;-73
2023/07/30 08:07:43;;;;;;;2.00;1.90;;;22.10;63.30;;;;;;20803;6812;116118;-73
2023/07/30 08:10:10;;;;;;;1.93;1.83;;;21.70;64.90;;;;;;20823;6812;117037;-73
2023/07/30 08:12:35;;;;;;;2.12;1.90;;;21.60;64.80;;;;;;20581;6812;337204;-72
2023/07/30 08:15:02;;;;;;;2.03;1.83;;;21.80;64.50;;;;;;20594;6812;313336;-72
2023/07/30 08:17:27;;;;;;;2.10;2.00;;;22.20;64.30;;;;;;20600;6812;306274;-72
2023/07/30 08:19:53;;;;;;;2.33;2.10;;;22.60;63.30;;;;;;20606;6812;276868;-73
2023/07/30 08:22:18;;;;;;;2.12;2.00;;;22.90;63.50;;;;;;20580;6812;312282;-72
2023/07/30 08:24:45;;;;;;;2.12;1.52;;;23.40;63.40;;;;;;20816;6812;119823;-73
2023/07/30 08:27:10;;;;;;;1.40;1.40;;;23.40;63.20;;;;;;20815;6812;117094;-73
2023/07/30 08:29:37;;;;;;;2.28;1.83;;;23.50;63.70;;;;;;20596;6812;335743;-73
2023/07/30 08:32:02;;;;;;;2.07;1.97;;;23.50;63.70;;;;;;20606;6812;281897;-72
2023/07/30 08:34:28;;;;;;;2.03;1.87;;;23.90;61.70;;;;;;20589;6811;280338;-73
2023/07/30 08:36:53;;;;;;;1.98;1.80;;;24.30;61.40;;;;;;20610;6812;276533;-73
2023/07/30 08:39:19;;;;;;;2.83;1.67;;;24.60;61.10;;;;;;20828;6812;116944;-73
2023/07/30 08:41:45;;;;;;;2.60;2.00;;;24.90;60.70;;;;;;20606;6812;306402;-74
2023/07/30 08:44:11;;;;;;;1.97;1.87;;;24.90;60.60;;;;;;20800;6812;145640;-74
2023/07/30 08:46:37;;;;;;;1.30;1.30;;;24.80;61.60;;;;;;20825;6812;119415;-74
2023/07/30 08:49:03;;;;;;;1.80;1.70;;;24.80;61.60;;;;;;20612;6812;276911;-73
2023/07/30 08:51:28;;;;;;;2.10;2.00;;;24.90;58.60;;;;;;20605;6812;296736;-74
2023/07/30 08:53:55;;;;;;;1.90;1.80;;;25.40;58.00;;;;;;20588;6812;306618;-72
2023/07/30 08:56:22;;;;;;;2.30;2.10;;;25.50;56.90;;;;;;20576;6812;306350;-72
2023/07/30 08:58:47;;;;;;;2.00;1.90;;;25.50;56.90;;;;;;20603;6812;281017;-72
2023/07/30 09:01:13;;;;;;;2.10;2.00;;;25.60;57.00;;;;;;20591;6812;282416;-72
2023/07/30 09:03:38;;;;;;;2.05;1.87;;;25.60;58.50;;;;;;20594;6812;307140;-72
2023/07/30 09:06:04;;;;;;;1.60;1.53;;;25.70;58.70;;;;;;20816;6812;119721;-72
2023/07/30 09:08:32;;;;;;;2.00;1.90;;;25.60;59.00;;;;;;20582;6812;306895;-72
2023/07/30 09:10:56;;;;;;;1.60;1.50;;;25.50;56.70;;;;;;20826;6812;119136;-73
2023/07/30 09:13:25;;;;;;;1.80;1.70;;;25.40;57.70;;;;;;20833;6812;117105;-73
2023/07/30 09:15:51;;;;;;;1.70;1.60;;;25.10;58.50;;;;;;20602;6812;336274;-72
2023/07/30 09:18:16;;;;;;;2.27;1.97;;;25.10;57.50;;;;;;20805;6812;118431;-73
2023/07/30 09:20:43;;;;;;;1.90;1.80;;;25.20;56.20;;;;;;20607;6812;280047;-73
2023/07/30 09:23:08;;;;;;;1.87;1.77;;;25.10;56.10;;;;;;20611;6812;306390;-73
2023/07/30 09:25:34;;;;;;;1.90;1.80;;;25.30;55.50;;;;;;20605;6812;305958;-72
2023/07/30 09:27:59;;;;;;;1.90;1.80;;;25.50;53.80;;;;;;20607;6812;336261;-72
2023/07/30 09:30:25;;;;;;;1.87;1.77;;;25.60;54.20;;;;;;20585;6812;306757;-72
2023/07/30 09:32:50;;;;;;;1.73;1.63;;;25.60;54.10;;;;;;20819;6812;118096;-69
2023/07/30 09:35:16;;;;;;;2.10;2.00;;;25.40;55.40;;;;;;20607;6812;277026;-70
2023/07/30 09:37:42;;;;;;;1.87;1.77;;;25.30;55.90;;;;;;20598;6812;307064;-68
2023/07/30 09:40:08;;;;;;;1.67;1.57;;;25.30;55.40;;;;;;20598;6812;310938;-68
2023/07/30 09:42:35;;;;;;;2.00;1.90;;;25.30;55.50;;;;;;20788;6812;127358;-69
2023/07/30 09:45:00;;;;;;;1.70;1.60;;;24.60;57.30;;;;;;20808;6811;119172;-70
2023/07/30 09:47:27;;;;;;;1.90;1.80;;;24.60;57.30;;;;;;20601;6811;279833;-71
2023/07/30 09:49:52;;;;;;;4.00;2.60;;;24.50;56.50;;;;;;20604;6812;276535;-68
2023/07/30 09:52:18;;;;;;;2.50;2.30;;;24.60;55.70;;;;;;20574;6812;310474;-68
2023/07/30 09:54:44;;;;;;;2.20;2.08;;;24.40;57.40;;;;;;20603;6812;305954;-66
2023/07/30 09:57:09;;;;;;;2.10;2.00;;;24.40;56.80;;;;;;20818;6812;119971;-69
2023/07/30 09:59:37;;;;;;;2.10;1.90;;;23.70;59.20;;;;;;20818;6812;117427;-69
2023/07/30 10:02:01;;;;;;;1.87;1.77;;;23.60;58.40;;;;;;20597;6812;306730;-69
2023/07/30 10:04:28;;;;;;;1.97;1.87;;;23.60;58.30;;;;;;20581;6812;306793;-69
2023/07/30 10:07:00;;;;;;;1.47;1.47;;;23.80;59.60;;;;;;20818;6812;120324;-69
2023/07/30 10:09:26;;;;;;;2.40;1.90;;;23.80;59.80;;;;;;20608;6812;277265;-67
2023/07/30 10:11:52;;;;;;;1.90;1.80;;;24.00;59.10;;;;;;20806;6812;120116;-67
2023/07/30 10:14:17;;;;;;;1.70;1.60;;;24.00;59.50;;;;;;20800;6812;121171;-68
2023/07/30 10:16:53;;;;;;;2.80;2.70;;;23.80;60.10;;;;;;20593;6812;306338;-68
2023/07/30 10:19:26;;;;;;;1.90;1.80;;;24.00;58.90;;;;;;20806;6812;117100;-67
2023/07/30 10:21:59;;;;;;;1.50;1.50;;;23.90;59.60;;;;;;20810;6812;116935;-68
2023/07/30 10:24:24;;;;;;;1.90;1.80;;;23.90;59.00;;;;;;20634;6812;123326;-69
2023/07/30 10:26:49;;;;;;;1.90;1.80;;;23.90;60.30;;;;;;20786;6812;120375;-68
2023/07/30 10:29:18;;;;;;;2.30;1.87;;;23.90;60.50;;;;;;20806;6812;117470;-68
2023/07/30 10:31:44;;;;;;;2.17;2.07;;;23.90;60.00;;;;;;20590;6812;314440;-68
2023/07/30 10:34:09;;;;;;;3.97;1.90;;;24.30;58.60;;;;;;20788;6812;120972;-69
2023/07/30 10:36:48;;;;;;;2.13;2.03;;;24.60;58.80;;;;;;20821;6812;121915;-68
2023/07/30 10:39:13;;;;;;;2.27;2.07;;;24.50;58.70;;;;;;20607;6812;279140;-68
2023/07/30 10:41:39;;;;;;;2.30;2.20;;;24.80;56.50;;;;;;20590;6812;339534;-68
2023/07/30 10:44:04;;;;;;;1.95;1.85;;;25.10;55.40;;;;;;20810;6812;117442;-68
2023/07/30 10:46:33;;;;;;;2.67;1.95;;;25.20;56.00;;;;;;20794;6812;117344;-69
2023/07/30 10:48:59;;;;;;;2.20;2.00;;;24.90;56.30;;;;;;20595;6812;277437;-67
2023/07/30 10:51:25;;;;;;;2.00;1.90;;;25.00;53.90;;;;;;20598;6812;298250;-68
2023/07/30 10:53:50;;;;;;;2.60;1.90;;;25.30;53.40;;;;;;20809;6812;117536;-68
2023/07/30 10:56:16;;;;;;;2.07;1.87;;;25.30;54.20;;;;;;20790;6812;117620;-68
2023/07/30 10:58:41;;;;;;;2.23;2.13;;;25.10;55.00;;;;;;20797;6811;117509;-68
2023/07/30 11:01:07;;;;;;;1.93;1.83;;;25.00;55.40;;;;;;20810;6812;119092;-68
2023/07/30 11:03:34;;;;;;;2.28;2.00;;;25.00;56.10;;;;;;20600;6812;305913;-68
2023/07/30 11:06:02;;;;;;;2.50;1.90;;;25.20;54.00;;;;;;20598;6812;309992;-67
2023/07/30 11:08:41;;;;;;;1.83;1.73;;;25.70;52.30;;;;;;20827;6812;119896;-68
2023/07/30 11:11:07;;;;;;;2.10;2.00;;;25.80;52.90;;;;;;20628;6812;278247;-68
2023/07/30 11:13:38;;;;;;;1.83;1.73;;;25.90;52.00;;;;;;20809;6812;117963;-68
2023/07/30 11:16:04;;;;;;;1.77;1.70;;;26.00;52.90;;;;;;20676;6812;120085;-68
2023/07/30 11:18:35;;;;;;;1.80;1.70;;;26.00;53.40;;;;;;20802;6812;118624;-68
2023/07/30 11:21:08;;;;;;;2.30;2.10;;;25.80;53.50;;;;;;20607;6812;306845;-69
2023/07/30 11:23:33;;;;;;;2.90;1.67;;;26.00;50.60;;;;;;20800;6812;119080;-68
2023/07/30 11:25:59;;;;;;;3.33;2.03;;;26.00;51.40;;;;;;20597;6812;337059;-68
2023/07/30 11:28:34;;;;;;;2.30;2.10;;;26.30;49.20;;;;;;20570;6812;309464;-68
2023/07/30 11:31:03;;;;;;;2.43;2.00;;;26.90;49.60;;;;;;20569;6812;276925;-69
2023/07/30 11:33:29;;;;;;;2.17;2.07;;;26.90;49.60;;;;;;20568;6812;308745;-69
2023/07/30 11:35:54;;;;;;;2.27;2.17;;;27.20;48.40;;;;;;20811;6812;116915;-69
2023/07/30 11:38:21;;;;;;;4.93;2.00;;;27.20;47.90;;;;;;20797;6812;119189;-69
2023/07/30 11:41:09;;;;;;;3.12;2.75;;;27.00;47.70;;;;;;20598;6812;334695;-69
2023/07/30 11:43:43;;;;;;;3.12;2.22;;;27.20;42.20;;;;;;20780;6700;333621;-68
2023/07/30 11:46:22;;;;;;;2.93;2.00;;;27.10;42.00;;;;;;20762;6700;275879;-68
2023/07/30 11:48:54;;;;;;;2.00;1.90;;;27.40;42.50;;;;;;21016;6700;117379;-68
2023/07/30 11:51:30;;;;;;;2.33;2.20;;;27.20;43.90;;;;;;20677;6779;309514;-69
2023/07/30 11:54:06;;;;;;;2.30;2.20;;;27.40;42.50;;;;;;20751;6697;306596;-69
2023/07/30 11:56:41;;;;;;;2.23;2.10;;;27.40;42.50;;;;;;20762;6708;275684;-69
2023/07/30 11:59:17;;;;;;;2.20;2.00;;;27.50;40.80;;;;;;20955;6712;116760;-68
2023/07/30 12:01:53;;;;;;;2.30;2.10;;;27.40;43.00;;;;;;20863;6741;117108;-69
2023/07/30 12:04:32;;;;;;;2.40;2.23;;;27.10;44.00;;;;;;20567;6749;286775;-69
2023/07/30 12:07:08;;;;;;;2.30;2.20;;;27.20;40.90;;;;;;20666;6729;305636;-68
2023/07/30 12:09:44;;;;;;;2.20;2.10;;;27.20;40.90;;;;;;20798;6811;116797;-69
2023/07/30 12:12:19;;;;;;;2.83;2.23;;;27.00;42.00;;;;;;20677;6726;276712;-71
2023/07/30 12:15:00;;;;;;;2.60;2.40;;;27.00;41.30;;;;;;20552;6741;312392;-70
2023/07/30 12:17:30;;;;;;;2.30;2.20;;;27.20;40.90;;;;;;20913;6724;117171;-70
2023/07/30 12:20:06;;;;;;;2.30;2.10;;;27.10;42.90;;;;;;20878;6736;116956;-70
2023/07/30 12:22:44;;;;;;;2.40;2.20;;;26.90;44.20;;;;;;20680;6736;306129;-67
2023/07/30 12:25:17;;;;;;;1.93;1.83;;;27.10;41.70;;;;;;20799;6720;119768;-69
2023/07/30 12:27:56;;;;;;;1.80;1.70;;;27.10;42.80;;;;;;20884;6738;117019;-67
2023/07/30 12:30:32;;;;;;;1.83;1.73;;;26.90;43.90;;;;;;20909;6721;120041;-68
2023/07/30 12:33:08;;;;;;;1.93;1.83;;;26.70;40.60;;;;;;20754;6708;275658;-70
2023/07/30 12:35:44;;;;;;;1.67;1.57;;;26.70;40.60;;;;;;20842;6712;117053;-70